sensor_id;sensor_type;location;lat;lon;timestamp;temperature;humidity
26326;DHT22;14032;52.510;7.342;2023-12-28T00:01:24;8.50;99.90
26326;DHT22;14032;52.510;7.342;2023-12-28T00:03:50;8.60;99.90
26326;DHT22;14032;52.510;7.342;2023-12-28T00:06:16;8.60;99.90
26326;DHT22;14032;52.510;7.342;2023-12-28T00:08:42;8.60;99.90
26326;DHT22;14032;52.510;7.342;2023-12-28T00:11:08;8.60;99.90
26326;DHT22;14032;52.510;7.342;2023-12-28T00:13:35;8.60;99.90
26326;DHT22;14032;52.510;7.342;2023-12-28T00:16:01;8.70;99.90
26326;DHT22;14032;52.510;7.342;2023-12-28T00:18:26;8.70;99.90
26326;DHT22;14032;52.510;7.342;2023-12-28T00:20:53;8.70;99.90
26326;DHT22;14032;52.510;7.342;2023-12-28T00:23:19;8.70;99.90
26326;DHT22;14032;52.510;7.342;2023-12-28T00:25:47;8.70;99.90
26326;DHT22;14032;52.510;7.342;2023-12-28T00:28:13;8.70;99.90
26326;DHT22;14032;52.510;7.342;2023-12-28T00:30:38;8.70;99.90
26326;DHT22;14032;52.510;7.342;2023-12-28T00:33:04;8.70;99.90
26326;DHT22;14032;52.510;7.342;2023-12-28T00:35:30;8.60;99.90
26326;DHT22;14032;52.510;7.342;2023-12-28T00:37:55;8.60;99.90
26326;DHT22;14032;52.510;7.342;2023-12-28T00:40:21;8.60;99.90
26326;DHT22;14032;52.510;7.342;2023-12-28T00:42:47;8.60;99.90
26326;DHT22;14032;52.510;7.342;2023-12-28T00:45:13;8.70;99.90
26326;DHT22;14032;52.510;7.342;2023-12-28T00:47:39;8.70;99.90
26326;DHT22;14032;52.510;7.342;2023-12-28T00:50:05;8.70;99.90
26326;DHT22;14032;52.510;7.342;2023-12-28T00:52:30;8.70;99.90
26326;DHT22;14032;52.510;7.342;2023-12-28T00:54:56;8.70;99.90
26326;DHT22;14032;52.510;7.342;2023-12-28T00:57:21;8.70;99.90
26326;DHT22;14032;52.510;7.342;2023-12-28T00:59:48;8.70;99.90
26326;DHT22;14032;52.510;7.342;2023-12-28T01:02:13;8.60;99.90
26326;DHT22;14032;52.510;7.342;2023-12-28T01:04:40;8.60;99.90
26326;DHT22;14032;52.510;7.342;2023-12-28T01:07:07;8.70;99.90
26326;DHT22;14032;52.510;7.342;2023-12-28T01:09:34;8.70;99.90
26326;DHT22;14032;52.510;7.342;2023-12-28T01:12:00;8.70;99.90
26326;DHT22;14032;52.510;7.342;2023-12-28T01:14:27;8.80;99.90
26326;DHT22;14032;52.510;7.342;2023-12-28T01:16:53;8.80;99.90
26326;DHT22;14032;52.510;7.342;2023-12-28T01:19:19;8.80;99.90
26326;DHT22;14032;52.510;7.342;2023-12-28T01:21:49;8.90;99.90
26326;DHT22;14032;52.510;7.342;2023-12-28T01:24:16;8.90;99.90
26326;DHT22;14032;52.510;7.342;2023-12-28T01:26:42;8.90;99.90
26326;DHT22;14032;52.510;7.342;2023-12-28T01:29:07;8.90;99.90
26326;DHT22;14032;52.510;7.342;2023-12-28T01:31:33;8.90;99.90
26326;DHT22;14032;52.510;7.342;2023-12-28T01:34:01;8.90;99.90
26326;DHT22;14032;52.510;7.342;2023-12-28T01:36:29;8.90;99.90
26326;DHT22;14032;52.510;7.342;2023-12-28T01:38:55;8.90;99.90
26326;DHT22;14032;52.510;7.342;2023-12-28T01:41:21;9.00;99.90
26326;DHT22;14032;52.510;7.342;2023-12-28T01:43:47;9.00;99.90
26326;DHT22;14032;52.510;7.342;2023-12-28T01:46:17;9.10;99.90
26326;DHT22;14032;52.510;7.342;2023-12-28T01:48:45;9.20;99.90
26326;DHT22;14032;52.510;7.342;2023-12-28T01:51:12;9.20;99.90
26326;DHT22;14032;52.510;7.342;2023-12-28T01:53:38;9.20;99.90
26326;DHT22;14032;52.510;7.342;2023-12-28T01:56:04;9.20;99.90
26326;DHT22;14032;52.510;7.342;2023-12-28T01:58:33;9.30;99.90
26326;DHT22;14032;52.510;7.342;2023-12-28T02:01:00;9.30;99.90
26326;DHT22;14032;52.510;7.342;2023-12-28T02:03:28;9.40;99.90
26326;DHT22;14032;52.510;7.342;2023-12-28T02:05:54;9.40;99.90
26326;DHT22;14032;52.510;7.342;2023-12-28T02:08:20;9.40;99.90
26326;DHT22;14032;52.510;7.342;2023-12-28T02:10:46;9.50;99.90
26326;DHT22;14032;52.510;7.342;2023-12-28T02:13:15;9.40;99.90
26326;DHT22;14032;52.510;7.342;2023-12-28T02:15:43;9.50;99.90
26326;DHT22;14032;52.510;7.342;2023-12-28T02:18:13;9.50;99.90
26326;DHT22;14032;52.510;7.342;2023-12-28T02:20:43;9.60;99.90
26326;DHT22;14032;52.510;7.342;2023-12-28T02:23:09;9.60;99.90
26326;DHT22;14032;52.510;7.342;2023-12-28T02:25:36;9.50;99.90
26326;DHT22;14032;52.510;7.342;2023-12-28T02:28:07;9.50;99.90
26326;DHT22;14032;52.510;7.342;2023-12-28T02:30:33;9.50;99.90
26326;DHT22;14032;52.510;7.342;2023-12-28T02:33:18;9.50;99.90
26326;DHT22;14032;52.510;7.342;2023-12-28T02:36:04;9.50;99.90
26326;DHT22;14032;52.510;7.342;2023-12-28T02:38:33;9.60;99.90
26326;DHT22;14032;52.510;7.342;2023-12-28T02:41:02;9.60;99.90
26326;DHT22;14032;52.510;7.342;2023-12-28T02:43:28;9.60;99.90
26326;DHT22;14032;52.510;7.342;2023-12-28T02:45:58;9.60;99.90
26326;DHT22;14032;52.510;7.342;2023-12-28T02:48:25;9.60;99.90
26326;DHT22;14032;52.510;7.342;2023-12-28T02:51:07;9.70;99.90
26326;DHT22;14032;52.510;7.342;2023-12-28T02:53:36;9.70;99.90
26326;DHT22;14032;52.510;7.342;2023-12-28T02:56:03;9.70;99.90
26326;DHT22;14032;52.510;7.342;2023-12-28T02:58:29;9.70;99.90
26326;DHT22;14032;52.510;7.342;2023-12-28T03:00:55;9.70;99.90
26326;DHT22;14032;52.510;7.342;2023-12-28T03:03:20;9.70;99.90
26326;DHT22;14032;52.510;7.342;2023-12-28T03:05:46;9.80;99.90
26326;DHT22;14032;52.510;7.342;2023-12-28T03:08:12;9.80;99.90
26326;DHT22;14032;52.510;7.342;2023-12-28T03:10:39;9.80;99.90
26326;DHT22;14032;52.510;7.342;2023-12-28T03:13:05;9.80;99.90
26326;DHT22;14032;52.510;7.342;2023-12-28T03:15:31;9.80;99.90
26326;DHT22;14032;52.510;7.342;2023-12-28T03:18:03;9.80;99.90
26326;DHT22;14032;52.510;7.342;2023-12-28T03:20:34;9.80;99.90
26326;DHT22;14032;52.510;7.342;2023-12-28T03:22:59;9.70;99.90
26326;DHT22;14032;52.510;7.342;2023-12-28T03:25:25;9.80;99.90
26326;DHT22;14032;52.510;7.342;2023-12-28T03:27:50;9.70;99.90
26326;DHT22;14032;52.510;7.342;2023-12-28T03:30:16;9.80;99.90
26326;DHT22;14032;52.510;7.342;2023-12-28T03:32:42;9.80;99.90
26326;DHT22;14032;52.510;7.342;2023-12-28T03:35:08;9.80;99.90
26326;DHT22;14032;52.510;7.342;2023-12-28T03:37:34;9.70;99.90
26326;DHT22;14032;52.510;7.342;2023-12-28T03:40:05;9.70;99.90
26326;DHT22;14032;52.510;7.342;2023-12-28T03:42:31;9.70;99.90
26326;DHT22;14032;52.510;7.342;2023-12-28T03:44:58;9.70;99.90
26326;DHT22;14032;52.510;7.342;2023-12-28T03:47:24;9.70;99.90
26326;DHT22;14032;52.510;7.342;2023-12-28T03:49:52;9.70;99.90
26326;DHT22;14032;52.510;7.342;2023-12-28T03:52:25;9.70;99.90
26326;DHT22;14032;52.510;7.342;2023-12-28T03:54:52;9.70;99.90
26326;DHT22;14032;52.510;7.342;2023-12-28T03:57:18;9.70;99.90
26326;DHT22;14032;52.510;7.342;2023-12-28T03:59:44;9.70;99.90
26326;DHT22;14032;52.510;7.342;2023-12-28T04:02:10;9.70;99.90
26326;DHT22;14032;52.510;7.342;2023-12-28T04:04:37;9.70;99.90
26326;DHT22;14032;52.510;7.342;2023-12-28T04:07:05;9.70;99.90
26326;DHT22;14032;52.510;7.342;2023-12-28T04:09:34;9.80;99.90
26326;DHT22;14032;52.510;7.342;2023-12-28T04:12:00;9.80;99.90
26326;DHT22;14032;52.510;7.342;2023-12-28T04:14:25;9.80;99.90
26326;DHT22;14032;52.510;7.342;2023-12-28T04:16:51;9.80;99.90
26326;DHT22;14032;52.510;7.342;2023-12-28T04:19:17;9.80;99.90
26326;DHT22;14032;52.510;7.342;2023-12-28T04:21:44;9.70;99.90
26326;DHT22;14032;52.510;7.342;2023-12-28T04:24:10;9.70;99.90
26326;DHT22;14032;52.510;7.342;2023-12-28T04:26:36;9.80;99.90
26326;DHT22;14032;52.510;7.342;2023-12-28T04:29:02;9.70;99.90
26326;DHT22;14032;52.510;7.342;2023-12-28T04:31:28;9.80;99.90
26326;DHT22;14032;52.510;7.342;2023-12-28T04:33:53;9.80;99.90
26326;DHT22;14032;52.510;7.342;2023-12-28T04:36:19;9.80;99.90
26326;DHT22;14032;52.510;7.342;2023-12-28T04:38:45;9.80;99.90
26326;DHT22;14032;52.510;7.342;2023-12-28T04:41:10;9.70;99.90
26326;DHT22;14032;52.510;7.342;2023-12-28T04:43:38;9.70;99.90
26326;DHT22;14032;52.510;7.342;2023-12-28T04:46:04;9.70;99.90
26326;DHT22;14032;52.510;7.342;2023-12-28T04:48:34;9.70;99.90
26326;DHT22;14032;52.510;7.342;2023-12-28T04:51:02;9.70;99.90
26326;DHT22;14032;52.510;7.342;2023-12-28T04:53:28;9.70;99.90
26326;DHT22;14032;52.510;7.342;2023-12-28T04:55:55;9.70;99.90
26326;DHT22;14032;52.510;7.342;2023-12-28T04:58:21;9.80;99.90
26326;DHT22;14032;52.510;7.342;2023-12-28T05:00:47;9.80;99.90
26326;DHT22;14032;52.510;7.342;2023-12-28T05:03:12;9.80;99.90
26326;DHT22;14032;52.510;7.342;2023-12-28T05:05:38;9.80;99.90
26326;DHT22;14032;52.510;7.342;2023-12-28T05:08:05;9.90;99.90
26326;DHT22;14032;52.510;7.342;2023-12-28T05:10:31;9.90;99.90
26326;DHT22;14032;52.510;7.342;2023-12-28T05:12:56;9.90;99.90
26326;DHT22;14032;52.510;7.342;2023-12-28T05:15:22;9.90;99.90
26326;DHT22;14032;52.510;7.342;2023-12-28T05:17:48;9.80;99.90
26326;DHT22;14032;52.510;7.342;2023-12-28T05:20:15;9.80;99.90
26326;DHT22;14032;52.510;7.342;2023-12-28T05:22:41;9.80;99.90
26326;DHT22;14032;52.510;7.342;2023-12-28T05:25:07;9.90;99.90
26326;DHT22;14032;52.510;7.342;2023-12-28T05:27:32;9.90;99.90
26326;DHT22;14032;52.510;7.342;2023-12-28T05:29:58;9.80;99.90
26326;DHT22;14032;52.510;7.342;2023-12-28T05:32:23;9.80;99.90
26326;DHT22;14032;52.510;7.342;2023-12-28T05:34:49;9.80;99.90
26326;DHT22;14032;52.510;7.342;2023-12-28T05:37:15;9.80;99.90
26326;DHT22;14032;52.510;7.342;2023-12-28T05:39:41;9.80;99.90
26326;DHT22;14032;52.510;7.342;2023-12-28T05:42:06;9.80;99.90
26326;DHT22;14032;52.510;7.342;2023-12-28T05:44:32;9.80;99.90
26326;DHT22;14032;52.510;7.342;2023-12-28T05:46:57;9.90;99.90
26326;DHT22;14032;52.510;7.342;2023-12-28T05:49:23;9.90;99.90
26326;DHT22;14032;52.510;7.342;2023-12-28T05:51:50;9.90;99.90
26326;DHT22;14032;52.510;7.342;2023-12-28T05:54:19;9.90;99.90
26326;DHT22;14032;52.510;7.342;2023-12-28T05:56:45;9.90;99.90
26326;DHT22;14032;52.510;7.342;2023-12-28T05:59:10;10.00;99.90
26326;DHT22;14032;52.510;7.342;2023-12-28T06:01:43;10.00;99.90
26326;DHT22;14032;52.510;7.342;2023-12-28T06:04:10;10.10;99.90
26326;DHT22;14032;52.510;7.342;2023-12-28T06:06:36;10.10;99.90
26326;DHT22;14032;52.510;7.342;2023-12-28T06:09:02;10.10;99.90
26326;DHT22;14032;52.510;7.342;2023-12-28T06:11:29;10.10;99.90
26326;DHT22;14032;52.510;7.342;2023-12-28T06:13:55;10.10;99.90
26326;DHT22;14032;52.510;7.342;2023-12-28T06:16:21;10.10;99.90
26326;DHT22;14032;52.510;7.342;2023-12-28T06:18:46;10.10;99.90
26326;DHT22;14032;52.510;7.342;2023-12-28T06:21:12;10.10;99.90
26326;DHT22;14032;52.510;7.342;2023-12-28T06:23:38;10.10;99.90
26326;DHT22;14032;52.510;7.342;2023-12-28T06:26:05;10.10;99.90
26326;DHT22;14032;52.510;7.342;2023-12-28T06:28:31;10.10;99.90
26326;DHT22;14032;52.510;7.342;2023-12-28T06:30:57;10.10;99.90
26326;DHT22;14032;52.510;7.342;2023-12-28T06:33:26;10.10;99.90
26326;DHT22;14032;52.510;7.342;2023-12-28T06:35:52;10.10;99.90
26326;DHT22;14032;52.510;7.342;2023-12-28T06:38:18;10.10;99.90
26326;DHT22;14032;52.510;7.342;2023-12-28T06:40:44;10.10;99.90
26326;DHT22;14032;52.510;7.342;2023-12-28T06:43:09;10.20;99.90
26326;DHT22;14032;52.510;7.342;2023-12-28T06:45:35;10.20;99.90
26326;DHT22;14032;52.510;7.342;2023-12-28T06:48:00;10.20;99.90
26326;DHT22;14032;52.510;7.342;2023-12-28T06:50:26;10.10;99.90
26326;DHT22;14032;52.510;7.342;2023-12-28T06:52:52;10.10;99.90
26326;DHT22;14032;52.510;7.342;2023-12-28T06:55:17;10.10;99.90
26326;DHT22;14032;52.510;7.342;2023-12-28T06:57:43;10.20;99.90
26326;DHT22;14032;52.510;7.342;2023-12-28T07:00:11;10.20;99.90
26326;DHT22;14032;52.510;7.342;2023-12-28T07:02:44;10.20;99.90
26326;DHT22;14032;52.510;7.342;2023-12-28T07:05:09;10.10;99.90
26326;DHT22;14032;52.510;7.342;2023-12-28T07:07:35;10.20;99.90
26326;DHT22;14032;52.510;7.342;2023-12-28T07:10:02;10.20;99.90
26326;DHT22;14032;52.510;7.342;2023-12-28T07:12:28;10.10;99.90
26326;DHT22;14032;52.510;7.342;2023-12-28T07:14:54;10.20;99.90
26326;DHT22;14032;52.510;7.342;2023-12-28T07:17:19;10.20;99.90
26326;DHT22;14032;52.510;7.342;2023-12-28T07:19:45;10.20;99.90
26326;DHT22;14032;52.510;7.342;2023-12-28T07:22:13;10.10;99.90
26326;DHT22;14032;52.510;7.342;2023-12-28T07:24:39;10.20;99.90
26326;DHT22;14032;52.510;7.342;2023-12-28T07:27:04;10.20;99.90
26326;DHT22;14032;52.510;7.342;2023-12-28T07:29:32;10.20;99.90
26326;DHT22;14032;52.510;7.342;2023-12-28T07:32:00;10.20;99.90
26326;DHT22;14032;52.510;7.342;2023-12-28T07:34:25;10.20;99.90
26326;DHT22;14032;52.510;7.342;2023-12-28T07:36:51;10.30;99.90
26326;DHT22;14032;52.510;7.342;2023-12-28T07:39:16;10.30;99.90
26326;DHT22;14032;52.510;7.342;2023-12-28T07:41:42;10.30;99.90
26326;DHT22;14032;52.510;7.342;2023-12-28T07:44:08;10.30;99.90
26326;DHT22;14032;52.510;7.342;2023-12-28T07:46:33;10.30;99.90
26326;DHT22;14032;52.510;7.342;2023-12-28T07:49:05;10.30;99.90
26326;DHT22;14032;52.510;7.342;2023-12-28T07:51:30;10.20;99.90
26326;DHT22;14032;52.510;7.342;2023-12-28T07:53:56;10.30;99.90
26326;DHT22;14032;52.510;7.342;2023-12-28T07:56:23;10.20;99.90
26326;DHT22;14032;52.510;7.342;2023-12-28T07:58:48;10.30;99.90
26326;DHT22;14032;52.510;7.342;2023-12-28T08:01:15;10.30;99.90
26326;DHT22;14032;52.510;7.342;2023-12-28T08:03:51;10.30;99.90
26326;DHT22;14032;52.510;7.342;2023-12-28T08:06:20;10.30;99.90
26326;DHT22;14032;52.510;7.342;2023-12-28T08:08:49;10.30;99.90
26326;DHT22;14032;52.510;7.342;2023-12-28T08:11:17;10.30;99.90
26326;DHT22;14032;52.510;7.342;2023-12-28T08:13:48;10.30;99.90
26326;DHT22;14032;52.510;7.342;2023-12-28T08:16:13;10.30;99.90
26326;DHT22;14032;52.510;7.342;2023-12-28T08:18:40;10.40;99.90
26326;DHT22;14032;52.510;7.342;2023-12-28T08:21:06;10.30;99.90
26326;DHT22;14032;52.510;7.342;2023-12-28T08:23:32;10.30;99.90
26326;DHT22;14032;52.510;7.342;2023-12-28T08:25:57;10.30;99.90
26326;DHT22;14032;52.510;7.342;2023-12-28T08:28:23;10.40;99.90
26326;DHT22;14032;52.510;7.342;2023-12-28T08:30:49;10.40;99.90
26326;DHT22;14032;52.510;7.342;2023-12-28T08:33:15;10.40;99.90
26326;DHT22;14032;52.510;7.342;2023-12-28T08:35:41;10.40;99.90
26326;DHT22;14032;52.510;7.342;2023-12-28T08:38:07;10.40;99.90
26326;DHT22;14032;52.510;7.342;2023-12-28T08:40:39;10.40;99.90
26326;DHT22;14032;52.510;7.342;2023-12-28T08:43:11;10.50;99.90
26326;DHT22;14032;52.510;7.342;2023-12-28T08:45:44;10.40;99.90
26326;DHT22;14032;52.510;7.342;2023-12-28T08:48:10;10.50;99.90
26326;DHT22;14032;52.510;7.342;2023-12-28T08:50:36;10.50;99.90
26326;DHT22;14032;52.510;7.342;2023-12-28T08:53:02;10.50;99.90
26326;DHT22;14032;52.510;7.342;2023-12-28T08:55:28;10.50;99.90
26326;DHT22;14032;52.510;7.342;2023-12-28T08:57:53;10.60;99.90
26326;DHT22;14032;52.510;7.342;2023-12-28T09:00:19;10.60;99.90
26326;DHT22;14032;52.510;7.342;2023-12-28T09:02:45;10.50;99.90
26326;DHT22;14032;52.510;7.342;2023-12-28T09:05:12;10.60;99.90
26326;DHT22;14032;52.510;7.342;2023-12-28T09:07:39;10.60;99.90
26326;DHT22;14032;52.510;7.342;2023-12-28T09:10:11;10.60;99.90
26326;DHT22;14032;52.510;7.342;2023-12-28T09:12:38;10.60;99.90
26326;DHT22;14032;52.510;7.342;2023-12-28T09:15:04;10.60;99.90
26326;DHT22;14032;52.510;7.342;2023-12-28T09:17:30;10.60;99.90
26326;DHT22;14032;52.510;7.342;2023-12-28T09:19:56;10.60;99.90
26326;DHT22;14032;52.510;7.342;2023-12-28T09:22:23;10.60;99.90
26326;DHT22;14032;52.510;7.342;2023-12-28T09:24:49;10.60;99.90
26326;DHT22;14032;52.510;7.342;2023-12-28T09:27:14;10.60;99.90
26326;DHT22;14032;52.510;7.342;2023-12-28T09:29:40;10.60;99.90
26326;DHT22;14032;52.510;7.342;2023-12-28T09:32:06;10.70;99.90
26326;DHT22;14032;52.510;7.342;2023-12-28T09:34:31;10.60;99.90
26326;DHT22;14032;52.510;7.342;2023-12-28T09:36:57;10.60;99.90
26326;DHT22;14032;52.510;7.342;2023-12-28T09:39:23;10.60;99.90
26326;DHT22;14032;52.510;7.342;2023-12-28T09:42:00;10.60;99.90
26326;DHT22;14032;52.510;7.342;2023-12-28T09:44:28;10.60;99.90
26326;DHT22;14032;52.510;7.342;2023-12-28T09:46:56;10.60;99.90
26326;DHT22;14032;52.510;7.342;2023-12-28T09:49:23;10.60;99.90
26326;DHT22;14032;52.510;7.342;2023-12-28T09:51:49;10.60;99.90
26326;DHT22;14032;52.510;7.342;2023-12-28T09:54:14;10.60;99.90
26326;DHT22;14032;52.510;7.342;2023-12-28T09:56:40;10.60;99.90
26326;DHT22;14032;52.510;7.342;2023-12-28T09:59:07;10.70;99.90
26326;DHT22;14032;52.510;7.342;2023-12-28T10:01:34;10.70;99.90
26326;DHT22;14032;52.510;7.342;2023-12-28T10:04:00;10.70;99.90
26326;DHT22;14032;52.510;7.342;2023-12-28T10:06:25;10.70;99.90
26326;DHT22;14032;52.510;7.342;2023-12-28T10:08:52;10.80;99.90
26326;DHT22;14032;52.510;7.342;2023-12-28T10:11:18;10.80;99.90
26326;DHT22;14032;52.510;7.342;2023-12-28T10:13:44;10.80;99.90
26326;DHT22;14032;52.510;7.342;2023-12-28T10:16:12;10.80;99.90
26326;DHT22;14032;52.510;7.342;2023-12-28T10:18:44;10.90;99.90
26326;DHT22;14032;52.510;7.342;2023-12-28T10:21:11;10.90;99.90
26326;DHT22;14032;52.510;7.342;2023-12-28T10:23:38;10.90;99.90
26326;DHT22;14032;52.510;7.342;2023-12-28T10:26:04;11.00;99.90
26326;DHT22;14032;52.510;7.342;2023-12-28T10:28:32;11.00;99.90
26326;DHT22;14032;52.510;7.342;2023-12-28T10:31:02;11.00;99.90
26326;DHT22;14032;52.510;7.342;2023-12-28T10:33:34;11.00;99.90
26326;DHT22;14032;52.510;7.342;2023-12-28T10:36:06;11.00;99.90
26326;DHT22;14032;52.510;7.342;2023-12-28T10:38:36;11.00;99.90
26326;DHT22;14032;52.510;7.342;2023-12-28T10:41:07;11.00;99.90
26326;DHT22;14032;52.510;7.342;2023-12-28T10:44:24;11.00;99.90
26326;DHT22;14032;52.510;7.342;2023-12-28T10:46:26;11.00;99.90
26326;DHT22;14032;52.510;7.342;2023-12-28T10:49:02;11.00;99.90
26326;DHT22;14032;52.510;7.342;2023-12-28T10:51:30;10.90;99.90
26326;DHT22;14032;52.510;7.342;2023-12-28T10:56:52;11.00;99.90
26326;DHT22;14032;52.510;7.342;2023-12-28T10:59:34;10.90;99.90
26326;DHT22;14032;52.510;7.342;2023-12-28T11:02:01;10.90;99.90
26326;DHT22;14032;52.510;7.342;2023-12-28T11:04:39;10.90;99.90
26326;DHT22;14032;52.510;7.342;2023-12-28T11:07:10;10.90;99.90
26326;DHT22;14032;52.510;7.342;2023-12-28T11:09:41;11.00;99.90
26326;DHT22;14032;52.510;7.342;2023-12-28T11:12:11;10.90;99.90
26326;DHT22;14032;52.510;7.342;2023-12-28T11:14:40;10.90;99.90
26326;DHT22;14032;52.510;7.342;2023-12-28T11:17:05;11.00;99.90
26326;DHT22;14032;52.510;7.342;2023-12-28T11:19:32;11.00;99.90
26326;DHT22;14032;52.510;7.342;2023-12-28T11:22:00;11.00;99.90
26326;DHT22;14032;52.510;7.342;2023-12-28T11:24:28;11.00;99.90
26326;DHT22;14032;52.510;7.342;2023-12-28T11:26:54;11.00;99.90
26326;DHT22;14032;52.510;7.342;2023-12-28T11:29:20;11.10;99.90
26326;DHT22;14032;52.510;7.342;2023-12-28T11:31:58;11.10;99.90
26326;DHT22;14032;52.510;7.342;2023-12-28T11:34:31;11.20;99.90
26326;DHT22;14032;52.510;7.342;2023-12-28T11:37:04;11.20;99.90
26326;DHT22;14032;52.510;7.342;2023-12-28T11:39:31;11.20;99.90
26326;DHT22;14032;52.510;7.342;2023-12-28T11:42:07;11.20;99.90
26326;DHT22;14032;52.510;7.342;2023-12-28T11:44:43;11.20;99.90
26326;DHT22;14032;52.510;7.342;2023-12-28T11:47:16;11.20;99.90
26326;DHT22;14032;52.510;7.342;2023-12-28T11:49:42;11.10;99.90
26326;DHT22;14032;52.510;7.342;2023-12-28T11:52:25;11.10;99.90
26326;DHT22;14032;52.510;7.342;2023-12-28T11:54:52;11.00;99.90
26326;DHT22;14032;52.510;7.342;2023-12-28T11:57:18;11.00;99.90
26326;DHT22;14032;52.510;7.342;2023-12-28T11:59:43;10.90;99.90
26326;DHT22;14032;52.510;7.342;2023-12-28T12:02:10;10.80;99.90
26326;DHT22;14032;52.510;7.342;2023-12-28T12:04:36;10.70;99.90
26326;DHT22;14032;52.510;7.342;2023-12-28T12:07:02;10.70;99.90
26326;DHT22;14032;52.510;7.342;2023-12-28T12:09:29;10.60;99.90
26326;DHT22;14032;52.510;7.342;2023-12-28T12:11:57;10.50;99.90
26326;DHT22;14032;52.510;7.342;2023-12-28T12:14:23;10.50;99.90
26326;DHT22;14032;52.510;7.342;2023-12-28T12:16:49;10.50;99.90
26326;DHT22;14032;52.510;7.342;2023-12-28T12:19:15;10.40;99.90
26326;DHT22;14032;52.510;7.342;2023-12-28T12:21:41;10.40;99.90
26326;DHT22;14032;52.510;7.342;2023-12-28T12:24:07;10.40;99.90
26326;DHT22;14032;52.510;7.342;2023-12-28T12:26:34;10.50;99.90
26326;DHT22;14032;52.510;7.342;2023-12-28T12:29:01;10.50;99.90
26326;DHT22;14032;52.510;7.342;2023-12-28T12:31:27;10.40;99.90
26326;DHT22;14032;52.510;7.342;2023-12-28T12:33:53;10.50;99.90
26326;DHT22;14032;52.510;7.342;2023-12-28T12:36:19;10.50;99.90
26326;DHT22;14032;52.510;7.342;2023-12-28T12:38:46;10.50;99.90
26326;DHT22;14032;52.510;7.342;2023-12-28T12:41:12;10.60;99.90
26326;DHT22;14032;52.510;7.342;2023-12-28T12:43:38;10.60;99.90
26326;DHT22;14032;52.510;7.342;2023-12-28T12:46:07;10.70;99.90
26326;DHT22;14032;52.510;7.342;2023-12-28T12:48:33;10.80;99.90
26326;DHT22;14032;52.510;7.342;2023-12-28T12:51:02;10.80;99.90
26326;DHT22;14032;52.510;7.342;2023-12-28T12:53:35;10.80;99.90
26326;DHT22;14032;52.510;7.342;2023-12-28T12:56:05;10.80;99.90
26326;DHT22;14032;52.510;7.342;2023-12-28T12:58:32;10.80;99.90
26326;DHT22;14032;52.510;7.342;2023-12-28T13:00:57;10.80;99.90
26326;DHT22;14032;52.510;7.342;2023-12-28T13:03:28;10.80;99.90
26326;DHT22;14032;52.510;7.342;2023-12-28T13:05:57;10.80;99.90
26326;DHT22;14032;52.510;7.342;2023-12-28T13:08:23;10.80;99.90
26326;DHT22;14032;52.510;7.342;2023-12-28T13:10:48;10.80;99.90
26326;DHT22;14032;52.510;7.342;2023-12-28T13:13:15;10.80;99.90
26326;DHT22;14032;52.510;7.342;2023-12-28T13:15:41;10.80;99.90
26326;DHT22;14032;52.510;7.342;2023-12-28T13:18:06;10.80;99.90
26326;DHT22;14032;52.510;7.342;2023-12-28T13:20:32;10.80;99.90
26326;DHT22;14032;52.510;7.342;2023-12-28T13:22:57;10.90;99.90
26326;DHT22;14032;52.510;7.342;2023-12-28T13:25:23;10.90;99.90
26326;DHT22;14032;52.510;7.342;2023-12-28T13:27:48;10.90;99.90
26326;DHT22;14032;52.510;7.342;2023-12-28T13:30:14;10.90;99.90
26326;DHT22;14032;52.510;7.342;2023-12-28T13:32:40;10.90;99.90
26326;DHT22;14032;52.510;7.342;2023-12-28T13:35:06;10.90;99.90
26326;DHT22;14032;52.510;7.342;2023-12-28T13:37:32;10.90;99.90
26326;DHT22;14032;52.510;7.342;2023-12-28T13:39:57;10.90;99.90
26326;DHT22;14032;52.510;7.342;2023-12-28T13:42:23;10.90;99.90
26326;DHT22;14032;52.510;7.342;2023-12-28T13:44:48;10.90;99.90
26326;DHT22;14032;52.510;7.342;2023-12-28T13:47:14;10.90;99.90
26326;DHT22;14032;52.510;7.342;2023-12-28T13:49:39;10.90;99.90
26326;DHT22;14032;52.510;7.342;2023-12-28T13:52:05;10.90;99.90
26326;DHT22;14032;52.510;7.342;2023-12-28T13:54:31;10.90;99.90
26326;DHT22;14032;52.510;7.342;2023-12-28T13:56:56;10.90;99.90
26326;DHT22;14032;52.510;7.342;2023-12-28T13:59:24;10.90;99.90
26326;DHT22;14032;52.510;7.342;2023-12-28T14:01:52;10.90;99.90
26326;DHT22;14032;52.510;7.342;2023-12-28T14:04:18;10.90;99.90
26326;DHT22;14032;52.510;7.342;2023-12-28T14:06:43;10.90;99.90
26326;DHT22;14032;52.510;7.342;2023-12-28T14:09:09;10.90;99.90
26326;DHT22;14032;52.510;7.342;2023-12-28T14:11:34;10.90;99.90
26326;DHT22;14032;52.510;7.342;2023-12-28T14:14:00;10.80;99.90
26326;DHT22;14032;52.510;7.342;2023-12-28T14:16:25;10.80;99.90
26326;DHT22;14032;52.510;7.342;2023-12-28T14:18:51;10.90;99.90
26326;DHT22;14032;52.510;7.342;2023-12-28T14:21:18;10.90;99.90
26326;DHT22;14032;52.510;7.342;2023-12-28T14:23:44;10.90;99.90
26326;DHT22;14032;52.510;7.342;2023-12-28T14:26:14;10.90;99.90
26326;DHT22;14032;52.510;7.342;2023-12-28T14:28:43;10.90;99.90
26326;DHT22;14032;52.510;7.342;2023-12-28T14:31:10;10.80;99.90
26326;DHT22;14032;52.510;7.342;2023-12-28T14:33:37;10.80;99.90
26326;DHT22;14032;52.510;7.342;2023-12-28T14:36:06;10.80;99.90
26326;DHT22;14032;52.510;7.342;2023-12-28T14:38:38;10.90;99.90
26326;DHT22;14032;52.510;7.342;2023-12-28T14:41:04;10.90;99.90
26326;DHT22;14032;52.510;7.342;2023-12-28T14:43:29;10.80;99.90
26326;DHT22;14032;52.510;7.342;2023-12-28T14:45:55;10.90;99.90
26326;DHT22;14032;52.510;7.342;2023-12-28T14:48:20;10.80;99.90
26326;DHT22;14032;52.510;7.342;2023-12-28T14:50:46;10.80;99.90
26326;DHT22;14032;52.510;7.342;2023-12-28T14:53:12;10.80;99.90
26326;DHT22;14032;52.510;7.342;2023-12-28T14:55:37;10.80;99.90
26326;DHT22;14032;52.510;7.342;2023-12-28T14:58:03;10.80;99.90
26326;DHT22;14032;52.510;7.342;2023-12-28T15:00:28;10.80;99.90
26326;DHT22;14032;52.510;7.342;2023-12-28T15:02:54;10.80;99.90
26326;DHT22;14032;52.510;7.342;2023-12-28T15:05:20;10.80;99.90
26326;DHT22;14032;52.510;7.342;2023-12-28T15:07:45;10.80;99.90
26326;DHT22;14032;52.510;7.342;2023-12-28T15:10:17;10.80;99.90
26326;DHT22;14032;52.510;7.342;2023-12-28T15:12:46;10.70;99.90
26326;DHT22;14032;52.510;7.342;2023-12-28T15:15:14;10.80;99.90
26326;DHT22;14032;52.510;7.342;2023-12-28T15:17:40;10.80;99.90
26326;DHT22;14032;52.510;7.342;2023-12-28T15:20:06;10.80;99.90
26326;DHT22;14032;52.510;7.342;2023-12-28T15:22:34;10.70;99.90
26326;DHT22;14032;52.510;7.342;2023-12-28T15:24:59;10.70;99.90
26326;DHT22;14032;52.510;7.342;2023-12-28T15:27:26;10.70;99.90
26326;DHT22;14032;52.510;7.342;2023-12-28T15:29:54;10.70;99.90
26326;DHT22;14032;52.510;7.342;2023-12-28T15:32:22;10.70;99.90
26326;DHT22;14032;52.510;7.342;2023-12-28T15:34:48;10.60;99.90
26326;DHT22;14032;52.510;7.342;2023-12-28T15:37:13;10.60;99.90
26326;DHT22;14032;52.510;7.342;2023-12-28T15:39:39;10.50;99.90